Hazelwood, Pennsylvania
Current Conditions -  °F | °C
As of 5:53 PM on Saturday 25 Oct 2014 (Local Time) from KAGC Reporting Station
Clear Clear  
Wind Chill: 64°   Ceiling: Unl
Heat Index: 64°   Visibility: 10mi
Dew Point: 48°   Wind: 16mph
Humidity: 56%   Direction: 250°WSW
Pressure: 29.76"   Gusts: 23mph
Location:  40.4147°N, 79.9411°W
Report Text: KAGC 252153Z 25014G20KT 10SM CLR 18/09 A2976 RMK AO2 SLP081 T01780089
Loading
Personal Weather Stations






























Interactive Weather Map
Tropical Storm Tracking
New forecast layout! Learn more

10-Day Weather Forecast

Advertisements
Track Severe Weather on mobile